createdAt,value
2018-09-17T00:00:51.776Z,101556.81
2018-09-17T00:03:18.943Z,101554.89
2018-09-17T00:05:46.122Z,101548.78
2018-09-17T00:08:13.413Z,101558.45
2018-09-17T00:10:40.665Z,101553.61
2018-09-17T00:13:07.859Z,101546.69
2018-09-17T00:15:35.086Z,101550.27
2018-09-17T00:18:02.277Z,101546.73
2018-09-17T00:20:29.910Z,101543.06
2018-09-17T00:22:57.126Z,101542.23
2018-09-17T00:25:24.291Z,101541.80
2018-09-17T00:27:51.526Z,101542.77
2018-09-17T00:30:18.739Z,101545.07
2018-09-17T00:32:45.908Z,101547.34
2018-09-17T00:35:13.072Z,101546.55
2018-09-17T00:37:40.306Z,101547.03
2018-09-17T00:40:07.460Z,101544.52
2018-09-17T00:42:34.630Z,101542.77
2018-09-17T00:45:01.857Z,101543.73
2018-09-17T00:47:29.011Z,101542.02
2018-09-17T00:49:57.240Z,101538.16
2018-09-17T00:52:24.465Z,101539.94
2018-09-17T00:54:51.661Z,101543.13
2018-09-17T00:57:18.850Z,101538.40
2018-09-17T00:59:46.034Z,101544.49
2018-09-17T01:02:13.201Z,101548.92
2018-09-17T01:04:40.384Z,101545.02
2018-09-17T01:07:07.610Z,101555.22
2018-09-17T01:09:40.499Z,101555.70
2018-09-17T01:12:07.736Z,101554.48
2018-09-17T01:14:34.980Z,101551.06
2018-09-17T01:17:02.147Z,101542.37
2018-09-17T01:19:29.362Z,101539.80
2018-09-17T01:21:56.535Z,101533.31
2018-09-17T01:24:23.707Z,101534.64
2018-09-17T01:26:50.921Z,101537.27
2018-09-17T01:29:18.102Z,101537.69
2018-09-17T01:31:45.259Z,101540.33
2018-09-17T01:34:12.930Z,101532.46
2018-09-17T01:36:40.077Z,101526.73
2018-09-17T01:39:08.340Z,101527.13
2018-09-17T01:41:35.566Z,101538.02
2018-09-17T01:44:02.789Z,101537.12
2018-09-17T01:46:29.955Z,101539.67
2018-09-17T01:48:57.146Z,101537.88
2018-09-17T01:51:24.300Z,101536.91
2018-09-17T01:53:51.463Z,101539.13
2018-09-17T01:56:18.695Z,101536.56
2018-09-17T01:58:45.864Z,101533.09
2018-09-17T02:01:13.034Z,101530.09
2018-09-17T02:03:40.247Z,101532.34
2018-09-17T02:06:07.446Z,101532.40
2018-09-17T02:08:34.668Z,101544.28
2018-09-17T02:11:01.917Z,101542.99
2018-09-17T02:13:29.337Z,101547.86
2018-09-17T02:15:56.480Z,101557.98
2018-09-17T02:18:23.676Z,101562.39
2018-09-17T02:20:50.847Z,101564.69
2018-09-17T02:23:18.010Z,101552.05
2018-09-17T02:25:45.218Z,101549.93
2018-09-17T02:28:12.380Z,101555.22
2018-09-17T02:30:39.534Z,101556.16
2018-09-17T02:33:06.751Z,101559.76
2018-09-17T02:35:33.920Z,101557.59
2018-09-17T02:38:01.084Z,101564.68
2018-09-17T02:40:28.290Z,101564.31
2018-09-17T02:42:55.500Z,101556.48
2018-09-17T02:45:22.656Z,101563.05
2018-09-17T02:47:49.890Z,101562.23
2018-09-17T02:50:17.107Z,101561.81
2018-09-17T02:52:44.287Z,101560.56
2018-09-17T02:55:11.531Z,101558.36
2018-09-17T02:57:38.727Z,101556.63
2018-09-17T03:00:07.312Z,101556.23
2018-09-17T03:02:34.522Z,101550.60
2018-09-17T03:05:01.683Z,101549.75
2018-09-17T03:07:28.841Z,101545.86
2018-09-17T03:09:56.048Z,101543.27
2018-09-17T03:12:23.246Z,101541.97
2018-09-17T03:14:50.459Z,101537.60
2018-09-17T03:17:17.670Z,101542.02
2018-09-17T03:19:45.514Z,101547.27
2018-09-17T03:22:13.313Z,101544.65
2018-09-17T03:24:40.629Z,101534.16
2018-09-17T03:27:08.153Z,101535.51
2018-09-17T03:29:35.317Z,101538.97
2018-09-17T03:32:02.537Z,101532.45
2018-09-17T03:34:29.712Z,101536.82
2018-09-17T03:36:56.889Z,101544.27
2018-09-17T03:39:24.174Z,101543.39
2018-09-17T03:41:51.415Z,101545.14
2018-09-17T03:44:18.573Z,101539.03
2018-09-17T03:46:45.836Z,101548.27
2018-09-17T03:49:12.967Z,101554.38
2018-09-17T03:51:40.125Z,101549.57
2018-09-17T03:54:07.322Z,101557.05
2018-09-17T03:56:34.481Z,101547.43
2018-09-17T03:59:01.726Z,101547.91
2018-09-17T04:01:28.861Z,101549.66
2018-09-17T04:03:56.466Z,101544.41
2018-09-17T04:06:23.649Z,101550.09
2018-09-17T04:08:50.844Z,101560.20
2018-09-17T04:11:18.012Z,101558.01
2018-09-17T04:13:45.372Z,101557.13
2018-09-17T04:16:12.537Z,101558.92
2018-09-17T04:18:39.694Z,101561.98
2018-09-17T04:21:07.900Z,101561.54
2018-09-17T04:23:36.224Z,101558.52
2018-09-17T04:26:04.665Z,101557.20
2018-09-17T04:28:32.115Z,101553.27
2018-09-17T04:30:59.336Z,101550.67
2018-09-17T04:33:27.557Z,101554.61
2018-09-17T04:35:54.853Z,101559.82
2018-09-17T04:38:22.043Z,101563.35
2018-09-17T04:40:49.336Z,101562.03
2018-09-17T04:43:16.607Z,101556.79
2018-09-17T04:45:43.815Z,101565.09
2018-09-17T04:48:11.066Z,101557.69
2018-09-17T04:50:38.368Z,101551.13
2018-09-17T04:53:05.556Z,101551.56
2018-09-17T04:55:32.685Z,101548.95
2018-09-17T04:57:59.922Z,101551.56
2018-09-17T05:00:27.162Z,101545.45
2018-09-17T05:02:54.434Z,101537.58
2018-09-17T05:05:21.634Z,101531.87
2018-09-17T05:07:48.779Z,101539.70
2018-09-17T05:10:15.938Z,101541.89
2018-09-17T05:12:43.151Z,101548.42
2018-09-17T05:15:10.325Z,101543.17
2018-09-17T05:17:37.514Z,101543.61
2018-09-17T05:20:04.738Z,101543.57
2018-09-17T05:22:31.876Z,101554.47
2018-09-17T05:24:59.146Z,101550.09
2018-09-17T05:27:26.387Z,101543.05
2018-09-17T05:29:53.538Z,101546.02
2018-09-17T05:32:20.749Z,101552.96
2018-09-17T05:34:47.937Z,101555.05
2018-09-17T05:37:15.083Z,101550.55
2018-09-17T05:39:42.752Z,101545.66
2018-09-17T05:42:10.013Z,101549.51
2018-09-17T05:44:37.173Z,101546.78
2018-09-17T05:47:04.379Z,101548.91
2018-09-17T05:49:31.552Z,101545.73
2018-09-17T05:51:58.694Z,101544.74
2018-09-17T05:54:25.831Z,101542.84
2018-09-17T05:56:53.185Z,101546.65
2018-09-17T05:59:20.615Z,101543.42
2018-09-17T06:01:47.822Z,101530.20
2018-09-17T06:04:15.010Z,101531.73
2018-09-17T06:06:42.158Z,101534.68
2018-09-17T06:09:10.787Z,101532.80
2018-09-17T06:11:37.985Z,101526.88
2018-09-17T06:14:05.502Z,101530.09
2018-09-17T06:16:32.691Z,101536.79
2018-09-17T06:18:59.900Z,101538.72
2018-09-17T06:21:27.087Z,101533.53
2018-09-17T06:23:54.266Z,101539.03
2018-09-17T06:26:21.531Z,101538.62
2018-09-17T06:28:48.765Z,101547.33
2018-09-17T06:31:16.048Z,101550.52
2018-09-17T06:33:43.338Z,101555.80
2018-09-17T06:36:10.565Z,101556.92
2018-09-17T06:38:37.774Z,101559.19
2018-09-17T06:41:05.028Z,101560.97
2018-09-17T06:43:32.263Z,101570.49
2018-09-17T06:45:59.473Z,101565.22
2018-09-17T06:48:26.804Z,101576.42
2018-09-17T06:50:53.985Z,101579.19
2018-09-17T06:53:21.196Z,101580.28
2018-09-17T06:55:48.408Z,101582.22
2018-09-17T07:09:36.573Z,101576.39
2018-09-17T07:12:04.001Z,101575.47
2018-09-17T07:14:31.168Z,101568.56
2018-09-17T07:16:58.322Z,101568.08
2018-09-17T07:19:25.554Z,101573.72
2018-09-17T07:21:52.717Z,101575.94
2018-09-17T07:24:19.877Z,101581.06
2018-09-17T07:26:47.090Z,101589.58
2018-09-17T07:29:14.278Z,101587.44
2018-09-17T07:31:41.428Z,101590.58
2018-09-17T07:34:08.769Z,101590.66
2018-09-17T07:36:36.067Z,101582.86
2018-09-17T07:39:05.480Z,101582.05
2018-09-17T07:41:32.714Z,101587.06
2018-09-17T07:43:59.900Z,101599.37
2018-09-17T07:46:27.065Z,101592.46
2018-09-17T07:48:54.317Z,101594.98
2018-09-17T07:51:21.449Z,101595.80
2018-09-17T07:53:48.629Z,101596.44
2018-09-17T07:56:15.860Z,101591.11
2018-09-17T07:58:43.056Z,101591.66
2018-09-17T08:01:10.219Z,101591.54
2018-09-17T08:03:37.482Z,101602.41
2018-09-17T08:06:04.836Z,101602.09
2018-09-17T08:08:32.186Z,101594.78
2018-09-17T08:11:00.228Z,101592.36
2018-09-17T08:13:27.402Z,101590.91
2018-09-17T08:15:54.556Z,101594.53
2018-09-17T08:18:21.760Z,101594.25
2018-09-17T08:20:48.946Z,101590.52
2018-09-17T08:23:16.133Z,101582.91
2018-09-17T08:25:43.540Z,101592.05
2018-09-17T08:28:10.693Z,101591.03
2018-09-17T08:30:37.988Z,101588.45
2018-09-17T08:33:05.447Z,101585.42
2018-09-17T08:35:33.201Z,101585.87
2018-09-17T08:38:00.368Z,101580.23
2018-09-17T08:40:27.772Z,101583.75
2018-09-17T08:42:55.340Z,101590.96
2018-09-17T08:45:22.542Z,101590.66
2018-09-17T08:47:50.025Z,101583.86
2018-09-17T08:50:17.429Z,101583.41
2018-09-17T08:52:44.806Z,101582.05
2018-09-17T08:55:16.594Z,101586.53
2018-09-17T08:57:49.387Z,101586.22
2018-09-17T09:00:18.086Z,101591.29
2018-09-17T09:02:51.016Z,101592.05
2018-09-17T09:06:23.622Z,101592.24
2018-09-17T09:08:50.968Z,101597.34
2018-09-17T09:11:25.709Z,101593.24
2018-09-17T09:13:56.015Z,101589.17
2018-09-17T09:16:23.995Z,101593.03
2018-09-17T09:18:51.186Z,101596.37
2018-09-17T09:21:18.402Z,101595.75
2018-09-17T09:23:45.581Z,101591.34
2018-09-17T09:26:12.941Z,101588.58
2018-09-17T09:28:40.225Z,101593.86
2018-09-17T09:31:07.467Z,101598.42
2018-09-17T09:33:34.663Z,101591.91
2018-09-17T09:36:01.880Z,101589.81
2018-09-17T09:38:29.072Z,101592.30
2018-09-17T09:43:59.265Z,101587.53
2018-09-17T09:46:26.433Z,101586.79
2018-09-17T09:48:53.597Z,101580.27
2018-09-17T09:51:20.830Z,101574.91
2018-09-17T09:53:48.014Z,101579.58
2018-09-17T09:56:15.199Z,101578.22
2018-09-17T09:58:42.487Z,101573.00
2018-09-17T10:01:15.700Z,101566.66
2018-09-17T10:03:43.947Z,101558.44
2018-09-17T10:06:12.528Z,101558.56
2018-09-17T10:08:46.510Z,101557.92
2018-09-17T10:11:19.262Z,101553.75
2018-09-17T10:13:52.270Z,101552.41
2018-09-17T10:16:24.491Z,101544.64
2018-09-17T10:18:57.301Z,101546.19
2018-09-17T10:21:24.682Z,101546.65
2018-09-17T10:23:56.725Z,101544.88
2018-09-17T10:26:24.283Z,101545.67
2018-09-17T10:29:07.807Z,101533.03
2018-09-17T10:31:48.322Z,101533.20
2018-09-17T10:34:25.552Z,101532.69
2018-09-17T10:37:08.526Z,101532.53
2018-09-17T10:39:52.746Z,101531.05
2018-09-17T10:42:19.924Z,101532.95
2018-09-17T10:44:47.153Z,101521.84
2018-09-17T10:47:14.622Z,101517.75
2018-09-17T10:49:41.765Z,101514.08
2018-09-17T10:52:12.869Z,101517.73
2018-09-17T10:54:40.189Z,101517.38
2018-09-17T10:57:07.330Z,101514.23
2018-09-17T10:59:34.599Z,101515.16
2018-09-17T11:02:01.856Z,101510.04
2018-09-17T11:04:29.082Z,101500.66
2018-09-17T11:06:56.302Z,101500.75
2018-09-17T11:09:23.502Z,101502.71
2018-09-17T11:11:50.848Z,101491.67
2018-09-17T11:14:17.981Z,101493.02
2018-09-17T11:16:45.221Z,101492.16
2018-09-17T11:19:12.389Z,101495.73
2018-09-17T11:21:39.629Z,101498.25
2018-09-17T11:24:06.932Z,101490.69
2018-09-17T11:26:34.106Z,101483.53
2018-09-17T11:29:01.304Z,101484.04
2018-09-17T11:31:28.575Z,101479.38
2018-09-17T11:33:55.704Z,101482.91
2018-09-17T11:36:22.932Z,101487.23
2018-09-17T11:38:50.285Z,101482.91
2018-09-17T11:41:17.486Z,101479.70
2018-09-17T11:43:44.618Z,101479.48
2018-09-17T11:46:11.788Z,101480.66
2018-09-17T11:48:38.993Z,101474.59
2018-09-17T11:51:06.164Z,101466.09
2018-09-17T11:53:33.419Z,101465.73
2018-09-17T11:56:00.628Z,101465.81
2018-09-17T11:58:27.773Z,101464.45
2018-09-17T12:01:01.687Z,101464.02
2018-09-17T12:03:34.405Z,101469.11
2018-09-17T12:06:02.972Z,101464.20
2018-09-17T12:08:30.093Z,101461.50
2018-09-17T12:10:57.308Z,101455.15
2018-09-17T12:13:24.811Z,101453.92
2018-09-17T12:15:52.037Z,101450.53
2018-09-17T12:18:19.147Z,101443.95
2018-09-17T12:20:46.339Z,101437.48
2018-09-17T12:23:13.475Z,101427.56
2018-09-17T12:25:40.623Z,101433.67
2018-09-17T12:28:07.905Z,101432.80
2018-09-17T12:30:35.064Z,101424.23
2018-09-17T12:33:02.258Z,101421.17
2018-09-17T12:35:29.436Z,101426.20
2018-09-17T12:37:56.621Z,101420.06
2018-09-17T12:40:24.806Z,101419.06
2018-09-17T12:42:52.233Z,101416.61
2018-09-17T12:45:19.984Z,101411.22
2018-09-17T12:47:47.372Z,101414.64
2018-09-17T12:50:14.655Z,101415.48
2018-09-17T12:52:41.850Z,101411.40
2018-09-17T12:55:09.036Z,101412.16
2018-09-17T12:57:36.731Z,101410.97
2018-09-17T13:00:06.147Z,101419.23
2018-09-17T13:02:33.437Z,101415.58
2018-09-17T13:05:00.730Z,101409.41
2018-09-17T13:07:28.030Z,101396.66
2018-09-17T13:09:55.220Z,101401.94
2018-09-17T13:12:22.412Z,101401.47
2018-09-17T13:14:49.850Z,101402.73
2018-09-17T13:17:17.302Z,101408.38
2018-09-17T13:19:45.375Z,101400.29
2018-09-17T13:22:12.598Z,101396.59
2018-09-17T13:24:40.940Z,101384.70
2018-09-17T13:27:08.154Z,101383.97
2018-09-17T13:29:35.298Z,101385.19
2018-09-17T13:32:02.550Z,101383.58
2018-09-17T13:34:29.734Z,101380.78
2018-09-17T13:36:56.884Z,101380.16
2018-09-17T13:39:24.102Z,101374.50
2018-09-17T13:41:51.314Z,101374.77
2018-09-17T13:44:18.569Z,101373.54
2018-09-17T13:46:45.633Z,101369.22
2018-09-17T13:49:12.834Z,101369.36
2018-09-17T13:51:40.012Z,101369.09
2018-09-17T13:54:07.827Z,101365.81
2018-09-17T13:56:35.092Z,101362.81
2018-09-17T13:59:02.318Z,101360.66
2018-09-17T14:01:29.549Z,101363.95
2018-09-17T14:03:56.883Z,101360.23
2018-09-17T14:06:24.198Z,101359.00
2018-09-17T14:08:51.405Z,101357.99
2018-09-17T14:11:18.652Z,101356.97
2018-09-17T14:13:45.975Z,101359.05
2018-09-17T14:16:13.333Z,101352.06
2018-09-17T14:18:40.986Z,101356.61
2018-09-17T14:21:08.201Z,101354.52
2018-09-17T14:23:35.414Z,101351.09
2018-09-17T14:26:02.902Z,101353.67
2018-09-17T14:28:30.100Z,101355.27
2018-09-17T14:30:57.376Z,101342.98
2018-09-17T14:33:30.360Z,101341.15
2018-09-17T14:35:57.604Z,101344.20
2018-09-17T14:38:25.078Z,101344.70
2018-09-17T14:40:52.573Z,101339.77
2018-09-17T14:43:19.893Z,101341.39
2018-09-17T14:45:47.013Z,101334.36
2018-09-17T14:48:14.221Z,101337.09
2018-09-17T14:50:41.439Z,101328.23
2018-09-17T14:53:08.770Z,101332.19
2018-09-17T14:55:36.074Z,101326.08
2018-09-17T14:58:03.330Z,101325.70
2018-09-17T15:00:30.495Z,101318.97
2018-09-17T15:02:57.713Z,101320.55
2018-09-17T15:05:24.880Z,101330.95
2018-09-17T15:07:52.149Z,101324.69
2018-09-17T15:10:19.434Z,101321.73
2018-09-17T15:12:46.552Z,101320.89
2018-09-17T15:15:13.734Z,101314.73
2018-09-17T15:17:41.008Z,101315.73
2018-09-17T15:20:08.222Z,101310.95
2018-09-17T15:22:35.402Z,101314.97
2018-09-17T15:25:02.701Z,101314.97
2018-09-17T15:27:29.857Z,101313.70
2018-09-17T15:29:57.165Z,101315.30
2018-09-17T15:32:24.535Z,101316.86
2018-09-17T15:34:51.618Z,101309.20
2018-09-17T15:37:18.761Z,101312.97
2018-09-17T15:39:45.945Z,101308.03
2018-09-17T15:42:13.172Z,101312.16
2018-09-17T15:44:40.331Z,101304.02
2018-09-17T15:47:07.544Z,101302.98
2018-09-17T15:49:34.708Z,101306.12
2018-09-17T15:52:01.911Z,101302.86
2018-09-17T15:54:29.121Z,101309.02
2018-09-17T15:56:56.264Z,101302.00
2018-09-17T15:59:23.416Z,101299.39
2018-09-17T16:01:50.724Z,101307.19
2018-09-17T16:04:17.919Z,101294.69
2018-09-17T16:06:45.057Z,101294.03
2018-09-17T16:09:12.255Z,101285.73
2018-09-17T16:11:39.402Z,101288.02
2018-09-17T16:14:06.560Z,101291.00
2018-09-17T16:16:33.873Z,101292.06
2018-09-17T16:19:01.020Z,101290.84
2018-09-17T16:21:28.173Z,101283.95
2018-09-17T16:23:55.378Z,101291.17
2018-09-17T16:26:22.496Z,101286.08
2018-09-17T16:28:49.788Z,101287.00
2018-09-17T16:31:17.102Z,101293.39
2018-09-17T16:33:44.253Z,101290.27
2018-09-17T16:36:11.481Z,101294.54
2018-09-17T16:38:38.670Z,101302.30
2018-09-17T16:41:06.237Z,101299.55
2018-09-17T16:43:33.538Z,101295.56
2018-09-17T16:46:00.726Z,101303.88
2018-09-17T16:48:27.868Z,101303.55
2018-09-17T16:50:54.980Z,101309.06
2018-09-17T16:53:22.469Z,101308.14
2018-09-17T16:55:49.728Z,101307.80
2018-09-17T16:58:16.913Z,101307.58
2018-09-17T17:00:44.146Z,101309.58
2018-09-17T17:03:11.436Z,101316.91
2018-09-17T17:05:38.581Z,101319.84
2018-09-17T17:08:05.770Z,101317.09
2018-09-17T17:10:32.888Z,101323.46
2018-09-17T17:13:00.008Z,101325.59
2018-09-17T17:15:27.181Z,101323.41
2018-09-17T17:17:54.289Z,101322.02
2018-09-17T17:20:21.477Z,101324.91
2018-09-17T17:22:48.724Z,101327.86
2018-09-17T17:25:15.840Z,101329.58
2018-09-17T17:27:43.072Z,101331.97
2018-09-17T17:30:10.331Z,101328.98
2018-09-17T17:32:37.497Z,101333.17
2018-09-17T17:35:04.754Z,101327.47
2018-09-17T17:37:31.913Z,101332.47
2018-09-17T17:39:59.160Z,101331.67
2018-09-17T17:42:26.216Z,101327.30
2018-09-17T17:44:53.914Z,101329.11
2018-09-17T17:47:21.044Z,101332.66
2018-09-17T17:49:48.277Z,101330.81
2018-09-17T17:52:15.694Z,101332.62
2018-09-17T17:54:42.899Z,101333.12
2018-09-17T17:57:10.029Z,101335.09
2018-09-17T17:59:37.223Z,101337.70
2018-09-17T18:02:04.428Z,101335.66
2018-09-17T18:04:31.572Z,101350.53
2018-09-17T18:06:58.812Z,101348.52
2018-09-17T18:09:26.103Z,101342.42
2018-09-17T18:11:53.369Z,101352.06
2018-09-17T18:14:20.584Z,101359.44
2018-09-17T18:16:47.752Z,101346.92
2018-09-17T18:19:14.957Z,101347.65
2018-09-17T18:21:42.271Z,101339.90
2018-09-17T18:24:09.428Z,101348.13
2018-09-17T18:26:36.618Z,101348.39
2018-09-17T18:29:03.924Z,101356.07
2018-09-17T18:31:31.205Z,101353.66
2018-09-17T18:33:58.503Z,101349.06
2018-09-17T18:36:25.746Z,101348.92
2018-09-17T18:38:52.912Z,101347.33
2018-09-17T18:41:20.110Z,101346.25
2018-09-17T18:43:47.332Z,101347.35
2018-09-17T18:46:14.531Z,101348.00
2018-09-17T18:48:42.798Z,101348.66
2018-09-17T18:51:10.231Z,101346.56
2018-09-17T18:53:37.394Z,101346.67
2018-09-17T18:56:04.586Z,101344.66
2018-09-17T18:58:31.899Z,101352.27
2018-09-17T19:00:59.227Z,101352.45
2018-09-17T19:03:26.487Z,101348.63
2018-09-17T19:05:53.875Z,101346.94
2018-09-17T19:08:21.089Z,101351.97
2018-09-17T19:10:48.406Z,101349.60
2018-09-17T19:13:15.658Z,101352.00
2018-09-17T19:15:48.697Z,101345.55
2018-09-17T19:18:15.931Z,101345.36
2018-09-17T19:20:43.448Z,101343.08
2018-09-17T19:23:16.199Z,101341.44
2018-09-17T19:25:43.371Z,101342.44
2018-09-17T19:28:16.186Z,101341.63
2018-09-17T19:30:43.232Z,101343.95
2018-09-17T19:33:10.372Z,101340.61
2018-09-17T19:35:37.541Z,101338.05
2018-09-17T19:38:10.380Z,101339.51
2018-09-17T19:40:44.939Z,101347.46
2018-09-17T19:43:17.232Z,101343.58
2018-09-17T19:48:58.386Z,101334.62
2018-09-17T19:54:06.284Z,101343.03
2018-09-17T19:56:33.436Z,101339.61
2018-09-17T19:59:08.554Z,101339.77
2018-09-17T20:01:35.968Z,101335.09
2018-09-17T20:04:08.852Z,101332.58
2018-09-17T20:06:35.992Z,101339.75
2018-09-17T20:09:04.043Z,101339.97
2018-09-17T20:11:31.244Z,101342.70
2018-09-17T20:13:58.408Z,101334.41
2018-09-17T20:16:25.596Z,101340.62
2018-09-17T20:18:52.790Z,101334.09
2018-09-17T20:21:22.048Z,101333.80
2018-09-17T20:23:49.193Z,101332.56
2018-09-17T20:26:16.402Z,101331.28
2018-09-17T20:28:43.570Z,101324.70
2018-09-17T20:31:10.752Z,101325.23
2018-09-17T20:33:37.996Z,101328.34
2018-09-17T20:36:05.230Z,101324.86
2018-09-17T20:38:32.422Z,101326.23
2018-09-17T20:40:59.601Z,101332.02
2018-09-17T20:43:26.790Z,101327.22
2018-09-17T20:45:53.944Z,101321.59
2018-09-17T20:48:21.153Z,101324.20
2018-09-17T20:50:48.440Z,101318.94
2018-09-17T20:53:15.595Z,101311.53
2018-09-17T20:55:42.944Z,101320.84
2018-09-17T20:58:10.053Z,101320.55
2018-09-17T21:00:37.265Z,101321.55
2018-09-17T21:03:04.460Z,101318.94
2018-09-17T21:05:31.633Z,101316.86
2018-09-17T21:07:59.837Z,101314.30
2018-09-17T21:10:27.071Z,101317.89
2018-09-17T21:12:54.260Z,101318.05
2018-09-17T21:15:21.465Z,101314.58
2018-09-17T21:17:48.677Z,101316.92
2018-09-17T21:20:15.826Z,101313.57
2018-09-17T21:22:43.078Z,101313.64
2018-09-17T21:25:10.320Z,101315.00
2018-09-17T21:27:37.480Z,101311.45
2018-09-17T21:30:04.997Z,101313.77
2018-09-17T21:32:32.491Z,101318.76
2018-09-17T21:34:59.662Z,101315.28
2018-09-17T21:37:26.826Z,101309.66
2018-09-17T21:39:54.037Z,101311.95
2018-09-17T21:42:21.214Z,101303.68
2018-09-17T21:44:48.380Z,101305.50
2018-09-17T21:47:16.021Z,101309.20
2018-09-17T21:49:43.193Z,101305.64
2018-09-17T21:52:10.369Z,101312.75
2018-09-17T21:54:37.597Z,101306.62
2018-09-17T21:57:05.856Z,101304.85
2018-09-17T21:59:33.018Z,101307.98
2018-09-17T22:02:00.304Z,101301.56
2018-09-17T22:04:27.541Z,101305.59
2018-09-17T22:06:54.693Z,101299.13
2018-09-17T22:09:21.921Z,101307.67
2018-09-17T22:11:49.108Z,101300.26
2018-09-17T22:14:16.270Z,101299.57
2018-09-17T22:16:43.494Z,101298.77
2018-09-17T22:19:10.665Z,101298.80
2018-09-17T22:21:37.832Z,101292.30
2018-09-17T22:24:06.242Z,101296.16
2018-09-17T22:26:33.401Z,101298.91
2018-09-17T22:29:00.619Z,101296.34
2018-09-17T22:31:27.789Z,101302.05
2018-09-17T22:33:54.954Z,101296.75
2018-09-17T22:36:22.100Z,101299.47
2018-09-17T22:38:49.335Z,101298.33
2018-09-17T22:41:16.516Z,101293.59
2018-09-17T22:43:43.693Z,101305.17
2018-09-17T22:46:10.911Z,101294.60
2018-09-17T22:48:38.052Z,101291.54
2018-09-17T22:51:05.838Z,101296.41
2018-09-17T22:53:33.074Z,101293.48
2018-09-17T22:56:04.782Z,101297.48
2018-09-17T22:58:31.932Z,101282.59
2018-09-17T23:00:59.136Z,101284.47
2018-09-17T23:03:26.399Z,101278.42
2018-09-17T23:05:53.580Z,101281.20
2018-09-17T23:08:20.769Z,101276.33
2018-09-17T23:10:47.938Z,101273.30
2018-09-17T23:13:15.118Z,101278.65
2018-09-17T23:15:42.385Z,101280.00
2018-09-17T23:18:09.538Z,101273.02
2018-09-17T23:20:36.716Z,101273.47
2018-09-17T23:23:03.951Z,101277.46
2018-09-17T23:25:31.111Z,101273.08
2018-09-17T23:27:58.307Z,101271.80
2018-09-17T23:30:25.496Z,101274.56
2018-09-17T23:32:52.641Z,101273.70
2018-09-17T23:35:19.800Z,101277.66
2018-09-17T23:37:46.995Z,101266.31
2018-09-17T23:40:14.191Z,101272.59
2018-09-17T23:42:41.353Z,101277.11
2018-09-17T23:45:08.598Z,101279.75
2018-09-17T23:47:35.753Z,101279.45
2018-09-17T23:50:02.944Z,101274.23
2018-09-17T23:52:30.206Z,101273.87
2018-09-17T23:54:57.374Z,101276.12
2018-09-17T23:57:24.578Z,101268.69
2018-09-17T23:59:51.812Z,101260.45
